TimeEDT,TemperatureF,Dew PointF,Humidity,Sea Level PressureIn,VisibilityMPH,Wind Direction,Wind SpeedMPH,Gust SpeedMPH,PrecipitationIn,Events,Conditions,WindDirDegrees,DateUTC
12:53 AM,41.0,37.0,86,29.92,10.0,NNW,13.8,21.9,0.04,Rain,Light Rain,340,2012-10-29 04:53:00
1:53 AM,41.0,37.0,86,29.91,10.0,North,8.1,-,0.00,Rain,Light Rain,350,2012-10-29 05:53:00
2:53 AM,41.0,37.0,86,29.89,10.0,NNW,12.7,-,0.02,Rain,Light Rain,340,2012-10-29 06:53:00
3:53 AM,41.0,37.0,86,29.88,10.0,NNW,11.5,-,0.00,Rain,Light Rain,340,2012-10-29 07:53:00
4:53 AM,41.0,37.0,86,29.87,10.0,NNW,10.4,-,0.01,Rain,Light Rain,330,2012-10-29 08:53:00
5:53 AM,41.0,37.9,89,29.86,10.0,NNW,8.1,-,0.01,Rain,Light Rain,340,2012-10-29 09:53:00
6:02 AM,41.0,37.4,87,29.85,10.0,NNW,11.5,17.3,0.01,Rain,Light Rain,330,2012-10-29 10:02:00
6:53 AM,42.1,37.9,85,29.86,10.0,NNW,9.2,-,0.01,Rain,Light Rain,340,2012-10-29 10:53:00
7:17 AM,42.8,37.4,81,29.83,10.0,North,10.4,-,0.01,Rain,Light Rain,350,2012-10-29 11:17:00
7:40 AM,41.0,37.4,87,29.83,10.0,North,10.4,20.7,0.01,Rain,Light Rain,350,2012-10-29 11:40:00
7:53 AM,41.0,37.9,89,29.85,10.0,NNW,11.5,21.9,0.02,Rain,Light Rain,340,2012-10-29 11:53:00
8:19 AM,41.0,37.4,87,29.84,10.0,North,11.5,-,0.00,Rain,Light Rain,350,2012-10-29 12:19:00
8:53 AM,41.0,37.9,89,29.85,9.0,NNW,11.5,17.3,0.01,Rain,Light Rain,330,2012-10-29 12:53:00
9:53 AM,42.1,37.9,85,29.83,10.0,NNW,11.5,-,0.03,Rain,Light Rain,340,2012-10-29 13:53:00
10:00 AM,42.8,37.4,81,29.82,10.0,NNW,9.2,-,0.00,Rain,Light Rain,340,2012-10-29 14:00:00
10:53 AM,42.1,37.9,85,29.82,8.0,NNW,9.2,19.6,0.03,Rain,Light Rain,340,2012-10-29 14:53:00
11:53 AM,42.1,39.0,89,29.80,9.0,NNW,12.7,-,0.03,Rain,Light Rain,330,2012-10-29 15:53:00
12:53 PM,42.1,39.0,89,29.78,10.0,NW,12.7,23.0,0.02,Rain,Light Rain,320,2012-10-29 16:53:00
1:53 PM,42.1,37.9,85,29.75,9.0,NNW,12.7,21.9,0.02,Rain,Light Rain,330,2012-10-29 17:53:00
2:53 PM,42.1,39.0,89,29.71,8.0,NW,13.8,24.2,0.04,Rain,Light Rain,320,2012-10-29 18:53:00
3:53 PM,42.1,37.9,85,29.68,10.0,NNW,13.8,25.3,0.04,Rain,Light Rain,330,2012-10-29 19:53:00
4:53 PM,42.1,37.9,85,29.65,9.0,NNW,13.8,-,0.04,Rain,Light Rain,340,2012-10-29 20:53:00
5:53 PM,42.1,37.9,85,29.61,7.0,NNW,18.4,24.2,0.05,Rain,Light Rain,330,2012-10-29 21:53:00
6:09 PM,42.8,37.4,81,29.59,9.0,NNW,12.7,26.5,0.01,Rain,Light Rain,330,2012-10-29 22:09:00
6:25 PM,42.8,37.4,81,29.59,10.0,NNW,17.3,26.5,0.02,Rain,Light Rain,330,2012-10-29 22:25:00
6:53 PM,43.0,37.9,82,29.59,10.0,NW,13.8,27.6,0.04,Rain,Light Rain,320,2012-10-29 22:53:00
7:53 PM,42.1,37.0,82,29.55,9.0,NNW,23.0,34.5,0.07,Rain,Rain,330,2012-10-29 23:53:00
8:53 PM,41.0,37.0,86,29.50,10.0,NW,20.7,31.1,0.06,Rain,Light Rain,320,2012-10-30 00:53:00
9:53 PM,41.0,37.0,86,29.47,9.0,NNW,19.6,32.2,0.08,Rain,Light Rain,330,2012-10-30 01:53:00
10:53 PM,42.1,37.9,85,29.42,8.0,NNW,15.0,24.2,0.11,Rain,Rain,330,2012-10-30 02:53:00
11:53 PM,41.0,37.0,86,29.37,7.0,NNW,20.7,36.8,0.09,Rain,Rain,330,2012-10-30 03:53:00